sensor_id;sensor_type;location;lat;lon;timestamp;pressure;altitude;pressure_sealevel;temperature;humidity
9523;BME280;63165;43.016;25.784;2022-11-15T00:00:46;100859.78;;;10.61;100.00
9523;BME280;63165;43.016;25.784;2022-11-15T00:03:14;100861.50;;;10.63;100.00
9523;BME280;63165;43.016;25.784;2022-11-15T00:05:41;100850.16;;;10.63;100.00
9523;BME280;63165;43.016;25.784;2022-11-15T00:08:09;100847.56;;;10.63;100.00
9523;BME280;63165;43.016;25.784;2022-11-15T00:10:38;100848.41;;;10.62;100.00
9523;BME280;63165;43.016;25.784;2022-11-15T00:13:05;100844.03;;;10.64;100.00
9523;BME280;63165;43.016;25.784;2022-11-15T00:15:35;100837.09;;;10.64;100.00
9523;BME280;63165;43.016;25.784;2022-11-15T00:18:03;100831.84;;;10.63;100.00
9523;BME280;63165;43.016;25.784;2022-11-15T00:20:30;100834.44;;;10.66;100.00
9523;BME280;63165;43.016;25.784;2022-11-15T00:22:57;100833.56;;;10.67;100.00
9523;BME280;63165;43.016;25.784;2022-11-15T00:25:24;100831.81;;;10.66;100.00
9523;BME280;63165;43.016;25.784;2022-11-15T00:27:57;100818.75;;;10.61;100.00
9523;BME280;63165;43.016;25.784;2022-11-15T00:30:24;100832.72;;;10.66;100.00
9523;BME280;63165;43.016;25.784;2022-11-15T00:32:51;100833.56;;;10.65;100.00
9523;BME280;63165;43.016;25.784;2022-11-15T00:35:19;100826.63;;;10.61;100.00
9523;BME280;63165;43.016;25.784;2022-11-15T00:37:46;100826.63;;;10.63;100.00
9523;BME280;63165;43.016;25.784;2022-11-15T00:40:14;100820.53;;;10.62;100.00
9523;BME280;63165;43.016;25.784;2022-11-15T00:42:42;100825.75;;;10.62;100.00
9523;BME280;63165;43.016;25.784;2022-11-15T00:45:10;100824.00;;;10.61;100.00
9523;BME280;63165;43.016;25.784;2022-11-15T00:47:38;100828.38;;;10.62;100.00
9523;BME280;63165;43.016;25.784;2022-11-15T00:50:05;100819.63;;;10.62;100.00
9523;BME280;63165;43.016;25.784;2022-11-15T00:52:32;100816.16;;;10.63;100.00
9523;BME280;63165;43.016;25.784;2022-11-15T00:55:00;100817.88;;;10.64;100.00
9523;BME280;63165;43.016;25.784;2022-11-15T00:57:27;100812.63;;;10.64;100.00
9523;BME280;63165;43.016;25.784;2022-11-15T00:59:54;100818.75;;;10.64;100.00
9523;BME280;63165;43.016;25.784;2022-11-15T01:02:23;100803.91;;;10.63;100.00
9523;BME280;63165;43.016;25.784;2022-11-15T01:04:50;100808.28;;;10.64;100.00
9523;BME280;63165;43.016;25.784;2022-11-15T01:07:17;100814.38;;;10.63;100.00
9523;BME280;63165;43.016;25.784;2022-11-15T01:09:44;100810.91;;;10.63;100.00
9523;BME280;63165;43.016;25.784;2022-11-15T01:12:11;100805.69;;;10.61;100.00
9523;BME280;63165;43.016;25.784;2022-11-15T01:14:38;100801.31;;;10.60;100.00
9523;BME280;63165;43.016;25.784;2022-11-15T01:17:06;100799.59;;;10.61;100.00
9523;BME280;63165;43.016;25.784;2022-11-15T01:19:34;100807.44;;;10.58;100.00
9523;BME280;63165;43.016;25.784;2022-11-15T01:22:01;100799.59;;;10.61;100.00
9523;BME280;63165;43.016;25.784;2022-11-15T01:24:29;100794.34;;;10.59;100.00
9523;BME280;63165;43.016;25.784;2022-11-15T01:26:56;100797.84;;;10.58;100.00
9523;BME280;63165;43.016;25.784;2022-11-15T01:29:23;100806.56;;;10.56;100.00
9523;BME280;63165;43.016;25.784;2022-11-15T01:31:50;100806.56;;;10.57;100.00
9523;BME280;63165;43.016;25.784;2022-11-15T01:34:19;100795.25;;;10.57;100.00
9523;BME280;63165;43.016;25.784;2022-11-15T01:36:47;100797.88;;;10.57;100.00
9523;BME280;63165;43.016;25.784;2022-11-15T01:39:15;100804.00;;;10.51;100.00
9523;BME280;63165;43.016;25.784;2022-11-15T01:41:42;100800.47;;;10.55;100.00
9523;BME280;63165;43.016;25.784;2022-11-15T01:44:34;100796.97;;;10.58;100.00
9523;BME280;63165;43.016;25.784;2022-11-15T01:47:09;100791.72;;;10.59;100.00
9523;BME280;63165;43.016;25.784;2022-11-15T01:49:40;100786.50;;;10.58;100.00
9523;BME280;63165;43.016;25.784;2022-11-15T01:52:15;100788.22;;;10.62;100.00
9523;BME280;63165;43.016;25.784;2022-11-15T01:54:44;100788.22;;;10.63;100.00
9523;BME280;63165;43.016;25.784;2022-11-15T01:57:13;100787.34;;;10.64;100.00
9523;BME280;63165;43.016;25.784;2022-11-15T01:59:43;100784.69;;;10.66;100.00
9523;BME280;63165;43.016;25.784;2022-11-15T02:02:12;100785.59;;;10.66;100.00
9523;BME280;63165;43.016;25.784;2022-11-15T02:04:43;100789.94;;;10.67;100.00
9523;BME280;63165;43.016;25.784;2022-11-15T02:07:15;100781.22;;;10.67;100.00
9523;BME280;63165;43.016;25.784;2022-11-15T02:09:44;100771.66;;;10.64;100.00
9523;BME280;63165;43.016;25.784;2022-11-15T02:12:13;100772.53;;;10.65;100.00
9523;BME280;63165;43.016;25.784;2022-11-15T02:14:42;100782.94;;;10.69;100.00
9523;BME280;63165;43.016;25.784;2022-11-15T02:17:26;100786.44;;;10.70;100.00
9523;BME280;63165;43.016;25.784;2022-11-15T02:23:29;100782.97;;;10.66;100.00
9523;BME280;63165;43.016;25.784;2022-11-15T02:26:16;100785.59;;;10.66;100.00
9523;BME280;63165;43.016;25.784;2022-11-15T02:28:58;100774.22;;;10.67;100.00
9523;BME280;63165;43.016;25.784;2022-11-15T02:31:30;100769.84;;;10.69;100.00
9523;BME280;63165;43.016;25.784;2022-11-15T02:34:05;100772.47;;;10.71;100.00
9523;BME280;63165;43.016;25.784;2022-11-15T02:36:40;100761.19;;;10.64;100.00
9523;BME280;63165;43.016;25.784;2022-11-15T02:39:15;100776.84;;;10.66;100.00
9523;BME280;63165;43.016;25.784;2022-11-15T02:41:48;100766.41;;;10.64;100.00
9523;BME280;63165;43.016;25.784;2022-11-15T02:44:23;100769.91;;;10.60;100.00
9523;BME280;63165;43.016;25.784;2022-11-15T02:46:55;100769.91;;;10.62;100.00
9523;BME280;63165;43.016;25.784;2022-11-15T02:49:46;100767.31;;;10.57;100.00
9523;BME280;63165;43.016;25.784;2022-11-15T02:52:15;100762.09;;;10.57;100.00
9523;BME280;63165;43.016;25.784;2022-11-15T02:54:52;100763.81;;;10.61;100.00
9523;BME280;63165;43.016;25.784;2022-11-15T02:57:25;100754.19;;;10.63;100.00
9523;BME280;63165;43.016;25.784;2022-11-15T03:00:06;100760.28;;;10.64;100.00
9523;BME280;63165;43.016;25.784;2022-11-15T03:02:49;100752.47;;;10.61;100.00
9523;BME280;63165;43.016;25.784;2022-11-15T03:05:25;100761.19;;;10.61;100.00
9523;BME280;63165;43.016;25.784;2022-11-15T03:07:59;100750.72;;;10.61;100.00
9523;BME280;63165;43.016;25.784;2022-11-15T03:10:35;100748.97;;;10.60;100.00
9523;BME280;63165;43.016;25.784;2022-11-15T03:13:15;100744.63;;;10.61;100.00
9523;BME280;63165;43.016;25.784;2022-11-15T03:15:50;100738.50;;;10.60;100.00
9523;BME280;63165;43.016;25.784;2022-11-15T03:18:24;100745.50;;;10.63;100.00
9523;BME280;63165;43.016;25.784;2022-11-15T03:20:55;100745.44;;;10.66;100.00
9523;BME280;63165;43.016;25.784;2022-11-15T03:23:25;100734.97;;;10.66;100.00
9523;BME280;63165;43.016;25.784;2022-11-15T03:25:55;100736.75;;;10.65;100.00
9523;BME280;63165;43.016;25.784;2022-11-15T03:28:26;100743.69;;;10.69;100.00
9523;BME280;63165;43.016;25.784;2022-11-15T03:30:56;100736.72;;;10.68;100.00
9523;BME280;63165;43.016;25.784;2022-11-15T03:33:26;100733.25;;;10.68;100.00
9523;BME280;63165;43.016;25.784;2022-11-15T03:35:55;100725.41;;;10.68;100.00
9523;BME280;63165;43.016;25.784;2022-11-15T03:38:25;100726.28;;;10.65;100.00
9523;BME280;63165;43.016;25.784;2022-11-15T03:40:55;100730.63;;;10.68;100.00
9523;BME280;63165;43.016;25.784;2022-11-15T03:43:30;100724.50;;;10.69;100.00
9523;BME280;63165;43.016;25.784;2022-11-15T03:46:03;100734.09;;;10.70;100.00
9523;BME280;63165;43.016;25.784;2022-11-15T03:48:37;100722.78;;;10.68;100.00
9523;BME280;63165;43.016;25.784;2022-11-15T03:51:06;100723.63;;;10.70;100.00
9523;BME280;63165;43.016;25.784;2022-11-15T03:53:34;100723.66;;;10.68;100.00
9523;BME280;63165;43.016;25.784;2022-11-15T03:56:01;100720.97;;;10.73;100.00
9523;BME280;63165;43.016;25.784;2022-11-15T03:58:28;100720.13;;;10.71;100.00
9523;BME280;63165;43.016;25.784;2022-11-15T04:00:55;100719.25;;;10.74;100.00
9523;BME280;63165;43.016;25.784;2022-11-15T04:03:22;100723.59;;;10.75;100.00
9523;BME280;63165;43.016;25.784;2022-11-15T04:05:51;100713.13;;;10.73;100.00
9523;BME280;63165;43.016;25.784;2022-11-15T04:08:18;100714.88;;;10.74;100.00
9523;BME280;63165;43.016;25.784;2022-11-15T04:10:48;100723.59;;;10.75;100.00
9523;BME280;63165;43.016;25.784;2022-11-15T04:13:15;100707.88;;;10.75;100.00
9523;BME280;63165;43.016;25.784;2022-11-15T04:15:43;100713.13;;;10.78;100.00
9523;BME280;63165;43.016;25.784;2022-11-15T04:18:10;100712.22;;;10.79;100.00
9523;BME280;63165;43.016;25.784;2022-11-15T04:20:37;100704.34;;;10.82;100.00
9523;BME280;63165;43.016;25.784;2022-11-15T04:23:23;100716.59;;;10.83;100.00
9523;BME280;63165;43.016;25.784;2022-11-15T04:26:10;100716.59;;;10.83;100.00
9523;BME280;63165;43.016;25.784;2022-11-15T04:28:38;100705.22;;;10.84;100.00
9523;BME280;63165;43.016;25.784;2022-11-15T04:31:26;100706.97;;;10.85;100.00
9523;BME280;63165;43.016;25.784;2022-11-15T04:33:54;100707.81;;;10.85;100.00
9523;BME280;63165;43.016;25.784;2022-11-15T04:36:22;100706.94;;;10.86;100.00
9523;BME280;63165;43.016;25.784;2022-11-15T04:39:08;100703.47;;;10.84;100.00
9523;BME280;63165;43.016;25.784;2022-11-15T04:41:35;100706.06;;;10.87;100.00
9523;BME280;63165;43.016;25.784;2022-11-15T04:44:02;100703.44;;;10.86;100.00
9523;BME280;63165;43.016;25.784;2022-11-15T04:46:30;100706.09;;;10.83;100.00
9523;BME280;63165;43.016;25.784;2022-11-15T04:48:57;100697.38;;;10.82;100.00
9523;BME280;63165;43.016;25.784;2022-11-15T04:51:24;100699.97;;;10.82;100.00
9523;BME280;63165;43.016;25.784;2022-11-15T04:53:51;100697.38;;;10.82;100.00
9523;BME280;63165;43.016;25.784;2022-11-15T04:56:20;100689.50;;;10.82;100.00
9523;BME280;63165;43.016;25.784;2022-11-15T04:58:48;100697.38;;;10.82;100.00
9523;BME280;63165;43.016;25.784;2022-11-15T05:01:16;100695.66;;;10.78;100.00
9523;BME280;63165;43.016;25.784;2022-11-15T05:03:44;100700.91;;;10.77;100.00
9523;BME280;63165;43.016;25.784;2022-11-15T05:06:29;100700.94;;;10.74;100.00
9523;BME280;63165;43.016;25.784;2022-11-15T05:08:57;100688.78;;;10.66;100.00
9523;BME280;63165;43.016;25.784;2022-11-15T05:11:26;100695.72;;;10.67;100.00
9523;BME280;63165;43.016;25.784;2022-11-15T05:13:54;100697.47;;;10.65;100.00
9523;BME280;63165;43.016;25.784;2022-11-15T05:16:21;100701.84;;;10.66;100.00
9523;BME280;63165;43.016;25.784;2022-11-15T05:18:51;100696.63;;;10.66;100.00
9523;BME280;63165;43.016;25.784;2022-11-15T05:21:18;100694.91;;;10.56;100.00
9523;BME280;63165;43.016;25.784;2022-11-15T05:23:46;100694.91;;;10.62;100.00
9523;BME280;63165;43.016;25.784;2022-11-15T05:26:15;100696.63;;;10.63;100.00
9523;BME280;63165;43.016;25.784;2022-11-15T05:28:44;100697.53;;;10.58;100.00
9523;BME280;63165;43.016;25.784;2022-11-15T05:31:14;100708.00;;;10.58;100.00
9523;BME280;63165;43.016;25.784;2022-11-15T05:33:42;100696.69;;;10.54;100.00
9523;BME280;63165;43.016;25.784;2022-11-15T05:36:15;100702.75;;;10.59;100.00
9523;BME280;63165;43.016;25.784;2022-11-15T05:38:45;100708.88;;;10.58;100.00
9523;BME280;63165;43.016;25.784;2022-11-15T05:41:14;100701.91;;;10.57;100.00
9523;BME280;63165;43.016;25.784;2022-11-15T05:43:44;100711.47;;;10.58;100.00
9523;BME280;63165;43.016;25.784;2022-11-15T05:46:12;100707.09;;;10.60;100.00
9523;BME280;63165;43.016;25.784;2022-11-15T05:48:43;100710.63;;;10.59;100.00
9523;BME280;63165;43.016;25.784;2022-11-15T05:51:12;100711.47;;;10.60;100.00
9523;BME280;63165;43.016;25.784;2022-11-15T05:53:41;100707.09;;;10.60;100.00
9523;BME280;63165;43.016;25.784;2022-11-15T05:56:09;100712.34;;;10.60;100.00
9523;BME280;63165;43.016;25.784;2022-11-15T05:58:37;100706.22;;;10.63;100.00
9523;BME280;63165;43.016;25.784;2022-11-15T06:01:06;100709.72;;;10.60;100.00
9523;BME280;63165;43.016;25.784;2022-11-15T06:03:33;100713.22;;;10.61;100.00
9523;BME280;63165;43.016;25.784;2022-11-15T06:06:01;100711.47;;;10.61;100.00
9523;BME280;63165;43.016;25.784;2022-11-15T06:08:28;100711.47;;;10.58;100.00
9523;BME280;63165;43.016;25.784;2022-11-15T06:10:56;100712.38;;;10.57;99.60
9523;BME280;63165;43.016;25.784;2022-11-15T06:13:23;100721.13;;;10.52;99.63
9523;BME280;63165;43.016;25.784;2022-11-15T06:15:51;100710.66;;;10.50;99.49
9523;BME280;63165;43.016;25.784;2022-11-15T06:18:23;100722.00;;;10.52;99.32
9523;BME280;63165;43.016;25.784;2022-11-15T06:20:50;100718.53;;;10.48;100.00
9523;BME280;63165;43.016;25.784;2022-11-15T06:23:18;100721.19;;;10.44;100.00
9523;BME280;63165;43.016;25.784;2022-11-15T06:25:45;100710.72;;;10.39;100.00
9523;BME280;63165;43.016;25.784;2022-11-15T06:28:12;100724.66;;;10.43;99.78
9523;BME280;63165;43.016;25.784;2022-11-15T06:30:39;100721.22;;;10.36;100.00
9523;BME280;63165;43.016;25.784;2022-11-15T06:33:06;100715.06;;;10.45;100.00
9523;BME280;63165;43.016;25.784;2022-11-15T06:35:36;100725.50;;;10.46;100.00
9523;BME280;63165;43.016;25.784;2022-11-15T06:38:05;100722.91;;;10.46;100.00
9523;BME280;63165;43.016;25.784;2022-11-15T06:40:33;100724.66;;;10.47;100.00
9523;BME280;63165;43.016;25.784;2022-11-15T06:43:02;100708.09;;;10.39;100.00
9523;BME280;63165;43.016;25.784;2022-11-15T06:45:29;100720.28;;;10.49;100.00
9523;BME280;63165;43.016;25.784;2022-11-15T06:47:56;100724.59;;;10.52;100.00
9523;BME280;63165;43.016;25.784;2022-11-15T06:50:24;100729.84;;;10.54;100.00
9523;BME280;63165;43.016;25.784;2022-11-15T06:52:52;100726.31;;;10.55;100.00
9523;BME280;63165;43.016;25.784;2022-11-15T06:55:20;100725.47;;;10.54;100.00
9523;BME280;63165;43.016;25.784;2022-11-15T06:57:48;100722.84;;;10.54;100.00
9523;BME280;63165;43.016;25.784;2022-11-15T07:00:16;100718.47;;;10.55;100.00
9523;BME280;63165;43.016;25.784;2022-11-15T07:02:44;100721.09;;;10.56;100.00
9523;BME280;63165;43.016;25.784;2022-11-15T07:05:12;100719.38;;;10.55;99.82
9523;BME280;63165;43.016;25.784;2022-11-15T07:07:39;100721.94;;;10.58;100.00
9523;BME280;63165;43.016;25.784;2022-11-15T07:10:09;100713.25;;;10.55;100.00
9523;BME280;63165;43.016;25.784;2022-11-15T07:12:36;100716.72;;;10.60;100.00
9523;BME280;63165;43.016;25.784;2022-11-15T07:15:04;100713.22;;;10.59;100.00
9523;BME280;63165;43.016;25.784;2022-11-15T07:17:33;100717.56;;;10.62;100.00
9523;BME280;63165;43.016;25.784;2022-11-15T07:20:00;100713.19;;;10.64;100.00
9523;BME280;63165;43.016;25.784;2022-11-15T07:22:28;100714.09;;;10.61;100.00
9523;BME280;63165;43.016;25.784;2022-11-15T07:24:55;100710.59;;;10.62;100.00
9523;BME280;63165;43.016;25.784;2022-11-15T07:27:24;100705.34;;;10.64;100.00
9523;BME280;63165;43.016;25.784;2022-11-15T07:29:51;100712.31;;;10.66;100.00
9523;BME280;63165;43.016;25.784;2022-11-15T07:32:18;100705.31;;;10.68;100.00
9523;BME280;63165;43.016;25.784;2022-11-15T07:34:45;100701.81;;;10.69;100.00
9523;BME280;63165;43.016;25.784;2022-11-15T07:37:13;100697.47;;;10.70;100.00
9523;BME280;63165;43.016;25.784;2022-11-15T07:39:40;100697.44;;;10.72;100.00
9523;BME280;63165;43.016;25.784;2022-11-15T07:42:07;100704.41;;;10.73;100.00
9523;BME280;63165;43.016;25.784;2022-11-15T07:44:53;100716.66;;;10.72;100.00
9523;BME280;63165;43.016;25.784;2022-11-15T07:47:20;100703.56;;;10.74;100.00
9523;BME280;63165;43.016;25.784;2022-11-15T07:49:47;100699.19;;;10.74;100.00
9523;BME280;63165;43.016;25.784;2022-11-15T07:52:14;100699.19;;;10.74;100.00
9523;BME280;63165;43.016;25.784;2022-11-15T07:54:42;100701.78;;;10.76;100.00
9523;BME280;63165;43.016;25.784;2022-11-15T07:57:09;100704.38;;;10.79;100.00
9523;BME280;63165;43.016;25.784;2022-11-15T07:59:37;100707.88;;;10.79;100.00
9523;BME280;63165;43.016;25.784;2022-11-15T08:02:05;100700.91;;;10.75;100.00
9523;BME280;63165;43.016;25.784;2022-11-15T08:04:32;100701.81;;;10.73;100.00
9523;BME280;63165;43.016;25.784;2022-11-15T08:07:00;100694.81;;;10.72;100.00
9523;BME280;63165;43.016;25.784;2022-11-15T08:09:27;100693.97;;;10.69;100.00
9523;BME280;63165;43.016;25.784;2022-11-15T08:11:54;100693.09;;;10.69;100.00
9523;BME280;63165;43.016;25.784;2022-11-15T08:14:22;100699.22;;;10.68;100.00
9523;BME280;63165;43.016;25.784;2022-11-15T08:16:50;100699.22;;;10.68;100.00
9523;BME280;63165;43.016;25.784;2022-11-15T08:19:19;100698.34;;;10.67;100.00
9523;BME280;63165;43.016;25.784;2022-11-15T08:21:48;100702.66;;;10.72;100.00
9523;BME280;63165;43.016;25.784;2022-11-15T08:24:15;100695.69;;;10.74;100.00
9523;BME280;63165;43.016;25.784;2022-11-15T08:26:43;100693.03;;;10.75;100.00
9523;BME280;63165;43.016;25.784;2022-11-15T08:29:10;100676.53;;;10.67;100.00
9523;BME280;63165;43.016;25.784;2022-11-15T08:31:38;100678.19;;;10.79;100.00
9523;BME280;63165;43.016;25.784;2022-11-15T08:34:22;100675.56;;;10.77;100.00
9523;BME280;63165;43.016;25.784;2022-11-15T08:36:50;100671.25;;;10.72;100.00
9523;BME280;63165;43.016;25.784;2022-11-15T08:39:18;100671.19;;;10.81;100.00
9523;BME280;63165;43.016;25.784;2022-11-15T08:41:46;100667.69;;;10.83;100.00
9523;BME280;63165;43.016;25.784;2022-11-15T08:44:13;100666.81;;;10.84;100.00
9523;BME280;63165;43.016;25.784;2022-11-15T08:46:40;100657.19;;;10.86;100.00
9523;BME280;63165;43.016;25.784;2022-11-15T08:49:07;100662.41;;;10.88;100.00
9523;BME280;63165;43.016;25.784;2022-11-15T08:51:36;100655.47;;;10.87;100.00
9523;BME280;63165;43.016;25.784;2022-11-15T08:54:03;100648.47;;;10.89;100.00
9523;BME280;63165;43.016;25.784;2022-11-15T08:56:31;100645.84;;;10.89;100.00
9523;BME280;63165;43.016;25.784;2022-11-15T08:59:00;100641.47;;;10.88;100.00
9523;BME280;63165;43.016;25.784;2022-11-15T09:01:28;100643.22;;;10.91;100.00
9523;BME280;63165;43.016;25.784;2022-11-15T09:03:55;100624.00;;;10.90;100.00
9523;BME280;63165;43.016;25.784;2022-11-15T09:06:22;100631.81;;;10.95;100.00
9523;BME280;63165;43.016;25.784;2022-11-15T09:08:51;100630.06;;;10.94;100.00
9523;BME280;63165;43.016;25.784;2022-11-15T09:11:18;100632.69;;;10.97;100.00
9523;BME280;63165;43.016;25.784;2022-11-15T09:13:47;100623.91;;;10.99;100.00
9523;BME280;63165;43.016;25.784;2022-11-15T09:16:14;100624.81;;;11.00;100.00
9523;BME280;63165;43.016;25.784;2022-11-15T09:18:42;100621.28;;;11.02;100.00
9523;BME280;63165;43.016;25.784;2022-11-15T09:21:09;100612.53;;;11.03;100.00
9523;BME280;63165;43.016;25.784;2022-11-15T09:23:37;100615.13;;;11.05;100.00
9523;BME280;63165;43.016;25.784;2022-11-15T09:26:06;100614.28;;;11.04;100.00
9523;BME280;63165;43.016;25.784;2022-11-15T09:28:34;100613.34;;;11.12;100.00
9523;BME280;63165;43.016;25.784;2022-11-15T09:31:03;100603.72;;;11.14;100.00
9523;BME280;63165;43.016;25.784;2022-11-15T09:33:31;100596.72;;;11.16;100.00
9523;BME280;63165;43.016;25.784;2022-11-15T09:36:00;100595.84;;;11.17;100.00
9523;BME280;63165;43.016;25.784;2022-11-15T09:38:28;100589.69;;;11.18;100.00
9523;BME280;63165;43.016;25.784;2022-11-15T09:41:13;100593.19;;;11.18;100.00
9523;BME280;63165;43.016;25.784;2022-11-15T09:43:50;100586.22;;;11.19;100.00
9523;BME280;63165;43.016;25.784;2022-11-15T09:46:24;100580.09;;;11.18;100.00
9523;BME280;63165;43.016;25.784;2022-11-15T09:48:54;100574.88;;;11.17;100.00
9523;BME280;63165;43.016;25.784;2022-11-15T09:51:29;100574.88;;;11.17;100.00
9523;BME280;63165;43.016;25.784;2022-11-15T09:54:02;100571.38;;;11.18;100.00
9523;BME280;63165;43.016;25.784;2022-11-15T09:56:36;100566.97;;;11.18;100.00
9523;BME280;63165;43.016;25.784;2022-11-15T10:02:14;100560.03;;;11.16;100.00
9523;BME280;63165;43.016;25.784;2022-11-15T10:04:44;100551.25;;;11.23;100.00
9523;BME280;63165;43.016;25.784;2022-11-15T10:07:15;100541.63;;;11.22;100.00
9523;BME280;63165;43.016;25.784;2022-11-15T10:09:47;100545.97;;;11.24;100.00
9523;BME280;63165;43.016;25.784;2022-11-15T10:12:17;100545.06;;;11.29;100.00
9523;BME280;63165;43.016;25.784;2022-11-15T10:14:45;100535.44;;;11.31;100.00
9523;BME280;63165;43.016;25.784;2022-11-15T10:17:34;100543.25;;;11.35;100.00
9523;BME280;63165;43.016;25.784;2022-11-15T10:20:12;100527.47;;;11.38;100.00
9523;BME280;63165;43.016;25.784;2022-11-15T10:22:46;100524.00;;;11.38;99.68
9523;BME280;63165;43.016;25.784;2022-11-15T10:25:19;100528.38;;;11.37;99.61
9523;BME280;63165;43.016;25.784;2022-11-15T10:27:53;100523.97;;;11.39;99.51
9523;BME280;63165;43.016;25.784;2022-11-15T10:30:21;100518.75;;;11.38;98.96
9523;BME280;63165;43.016;25.784;2022-11-15T10:32:49;100515.28;;;11.37;98.27
9523;BME280;63165;43.016;25.784;2022-11-15T10:35:19;100511.75;;;11.37;98.15
9523;BME280;63165;43.016;25.784;2022-11-15T10:37:48;100507.41;;;11.37;98.26
9523;BME280;63165;43.016;25.784;2022-11-15T10:40:17;100510.81;;;11.42;98.10
9523;BME280;63165;43.016;25.784;2022-11-15T10:42:45;100507.31;;;11.43;98.51
9523;BME280;63165;43.016;25.784;2022-11-15T10:45:29;100501.16;;;11.46;98.99
9523;BME280;63165;43.016;25.784;2022-11-15T10:48:20;100494.13;;;11.50;98.55
9523;BME280;63165;43.016;25.784;2022-11-15T10:50:49;100481.88;;;11.52;98.92
9523;BME280;63165;43.016;25.784;2022-11-15T10:53:21;100477.53;;;11.52;99.36
9523;BME280;63165;43.016;25.784;2022-11-15T10:55:53;100476.59;;;11.56;98.73
9523;BME280;63165;43.016;25.784;2022-11-15T10:58:33;100469.56;;;11.58;98.58
9523;BME280;63165;43.016;25.784;2022-11-15T11:01:17;100468.63;;;11.64;99.53
9523;BME280;63165;43.016;25.784;2022-11-15T11:03:46;100469.44;;;11.68;98.87
9523;BME280;63165;43.016;25.784;2022-11-15T11:06:25;100464.13;;;11.71;97.85
9523;BME280;63165;43.016;25.784;2022-11-15T11:08:57;100460.59;;;11.75;97.67
9523;BME280;63165;43.016;25.784;2022-11-15T11:11:25;100457.88;;;11.82;98.31
9523;BME280;63165;43.016;25.784;2022-11-15T11:13:52;100453.38;;;11.91;97.02
9523;BME280;63165;43.016;25.784;2022-11-15T11:16:42;100453.28;;;11.97;96.31
9523;BME280;63165;43.016;25.784;2022-11-15T11:19:40;100450.50;;;12.06;96.41
9523;BME280;63165;43.016;25.784;2022-11-15T11:22:19;100452.09;;;12.16;96.60
9523;BME280;63165;43.016;25.784;2022-11-15T11:24:56;100447.66;;;12.21;96.28
9523;BME280;63165;43.016;25.784;2022-11-15T11:27:36;100449.34;;;12.24;95.59
9523;BME280;63165;43.016;25.784;2022-11-15T11:30:09;100444.97;;;12.24;95.72
9523;BME280;63165;43.016;25.784;2022-11-15T11:35:53;100436.13;;;12.29;93.74
9523;BME280;63165;43.016;25.784;2022-11-15T11:38:34;100430.03;;;12.28;93.25
9523;BME280;63165;43.016;25.784;2022-11-15T11:41:10;100423.09;;;12.26;94.37
9523;BME280;63165;43.016;25.784;2022-11-15T11:43:44;100423.94;;;12.28;93.95
9523;BME280;63165;43.016;25.784;2022-11-15T11:46:42;100423.00;;;12.30;93.72
9523;BME280;63165;43.016;25.784;2022-11-15T11:49:18;100417.72;;;12.33;93.77
9523;BME280;63165;43.016;25.784;2022-11-15T11:51:53;100414.09;;;12.39;93.58
9523;BME280;63165;43.016;25.784;2022-11-15T11:54:25;100414.09;;;12.39;92.50
9523;BME280;63165;43.016;25.784;2022-11-15T11:57:00;100413.25;;;12.38;91.51
9523;BME280;63165;43.016;25.784;2022-11-15T11:59:35;100401.94;;;12.35;91.33
9523;BME280;63165;43.016;25.784;2022-11-15T12:02:14;100406.28;;;12.36;91.29
9523;BME280;63165;43.016;25.784;2022-11-15T12:04:44;100406.25;;;12.37;91.77
9523;BME280;63165;43.016;25.784;2022-11-15T12:07:20;100404.44;;;12.41;91.67
9523;BME280;63165;43.016;25.784;2022-11-15T12:09:55;100406.19;;;12.42;91.89
9523;BME280;63165;43.016;25.784;2022-11-15T12:12:30;100402.63;;;12.45;91.89
9523;BME280;63165;43.016;25.784;2022-11-15T12:15:02;100393.00;;;12.43;91.94
9523;BME280;63165;43.016;25.784;2022-11-15T12:17:31;100394.81;;;12.40;91.01
9523;BME280;63165;43.016;25.784;2022-11-15T12:20:00;100390.63;;;12.33;91.39
9523;BME280;63165;43.016;25.784;2022-11-15T12:22:36;100382.75;;;12.33;90.95
9523;BME280;63165;43.016;25.784;2022-11-15T12:25:13;100381.84;;;12.32;90.52
9523;BME280;63165;43.016;25.784;2022-11-15T12:27:44;100369.84;;;12.20;91.13
9523;BME280;63165;43.016;25.784;2022-11-15T12:30:16;100374.97;;;12.27;91.31
9523;BME280;63165;43.016;25.784;2022-11-15T12:32:51;100373.25;;;12.26;90.49
9523;BME280;63165;43.016;25.784;2022-11-15T12:35:26;100371.53;;;12.23;90.39
9523;BME280;63165;43.016;25.784;2022-11-15T12:37:56;100373.28;;;12.22;90.86
9523;BME280;63165;43.016;25.784;2022-11-15T12:40:34;100373.38;;;12.19;90.12
9523;BME280;63165;43.016;25.784;2022-11-15T12:46:14;100362.09;;;12.13;90.53
9523;BME280;63165;43.016;25.784;2022-11-15T12:48:56;100362.16;;;12.10;89.66
9523;BME280;63165;43.016;25.784;2022-11-15T12:52:04;100358.66;;;12.11;90.06
9523;BME280;63165;43.016;25.784;2022-11-15T12:54:59;100351.78;;;12.03;89.59
9523;BME280;63165;43.016;25.784;2022-11-15T12:57:41;100348.28;;;12.04;89.51
9523;BME280;63165;43.016;25.784;2022-11-15T13:00:42;100352.75;;;11.99;89.35
9523;BME280;63165;43.016;25.784;2022-11-15T13:03:26;100355.41;;;11.96;89.72
9523;BME280;63165;43.016;25.784;2022-11-15T13:06:04;100347.50;;;11.98;90.09
9523;BME280;63165;43.016;25.784;2022-11-15T13:08:48;100344.88;;;11.99;90.58
9523;BME280;63165;43.016;25.784;2022-11-15T13:11:49;100341.41;;;11.97;90.35
9523;BME280;63165;43.016;25.784;2022-11-15T13:14:50;100335.28;;;11.97;90.22
9523;BME280;63165;43.016;25.784;2022-11-15T13:17:28;100330.91;;;11.97;90.10